createdAt,value
2016-07-25T00:00:36.700Z,58.37
2016-07-25T00:01:37.707Z,58.17
2016-07-25T00:02:37.399Z,58.65
2016-07-25T00:03:36.653Z,59.05
2016-07-25T00:04:37.581Z,58.47
2016-07-25T00:05:36.578Z,59.05
2016-07-25T00:06:36.319Z,58.85
2016-07-25T00:07:36.256Z,59.43
2016-07-25T00:08:36.212Z,59.63
2016-07-25T00:09:36.542Z,59.53
2016-07-25T00:10:36.425Z,59.23
2016-07-25T00:11:36.086Z,59.53
2016-07-25T00:12:37.112Z,59.72
2016-07-25T00:13:37.006Z,59.59
2016-07-25T00:14:36.239Z,59.59
2016-07-25T00:15:36.187Z,59.59
2016-07-25T00:16:37.028Z,59.59
2016-07-25T00:17:36.276Z,60.08
2016-07-25T00:18:36.117Z,60.27
2016-07-25T00:19:36.843Z,60.17
2016-07-25T00:20:36.122Z,60.08
2016-07-25T00:21:36.927Z,60.47
2016-07-25T00:22:35.958Z,60.27
2016-07-25T00:23:35.808Z,60.27
2016-07-25T00:24:35.846Z,60.17
2016-07-25T00:25:35.888Z,60.17
2016-07-25T00:26:35.700Z,60.27
2016-07-25T00:27:35.747Z,60.66
2016-07-25T00:28:35.701Z,60.85
2016-07-25T00:29:35.826Z,60.66
2016-07-25T00:30:35.780Z,60.47
2016-07-25T00:31:35.667Z,60.95
2016-07-25T00:32:35.876Z,60.75
2016-07-25T00:33:35.703Z,61.02
2016-07-25T00:34:35.661Z,60.85
2016-07-25T00:35:35.797Z,60.75
2016-07-25T00:36:35.628Z,61.15
2016-07-25T00:37:35.562Z,61.24
2016-07-25T00:38:35.763Z,61.05
2016-07-25T00:39:35.522Z,60.85
2016-07-25T00:40:35.540Z,61.24
2016-07-25T00:41:35.364Z,61.02
2016-07-25T00:42:35.385Z,61.15
2016-07-25T00:43:35.333Z,60.95
2016-07-25T00:44:35.320Z,61.15
2016-07-25T00:45:35.303Z,60.92
2016-07-25T00:46:35.291Z,60.92
2016-07-25T00:47:35.274Z,61.05
2016-07-25T00:48:35.261Z,61.43
2016-07-25T00:49:35.244Z,61.21
2016-07-25T00:50:35.230Z,61.02
2016-07-25T00:51:35.214Z,61.02
2016-07-25T00:52:35.199Z,61.11
2016-07-25T00:53:35.183Z,61.21
2016-07-25T00:54:35.169Z,61.3
2016-07-25T00:55:35.155Z,61.11
2016-07-25T00:56:35.142Z,60.92
2016-07-25T00:57:35.125Z,61.15
2016-07-25T00:58:35.112Z,60.75
2016-07-25T00:59:35.098Z,60.95
2016-07-25T01:00:35.082Z,60.95
2016-07-25T01:01:35.069Z,61.15
2016-07-25T01:02:35.051Z,60.95
2016-07-25T01:03:35.036Z,61.33
2016-07-25T01:04:35.021Z,61.05
2016-07-25T01:05:35.009Z,61.05
2016-07-25T01:06:34.997Z,61.33
2016-07-25T01:07:34.982Z,61.05
2016-07-25T01:08:34.962Z,60.92
2016-07-25T01:09:34.947Z,60.85
2016-07-25T01:10:34.933Z,60.92
2016-07-25T01:11:34.920Z,61.72
2016-07-25T01:12:34.904Z,61.4
2016-07-25T01:13:34.888Z,61.5
2016-07-25T01:14:34.873Z,62.08
2016-07-25T01:15:34.864Z,61.69
2016-07-25T01:16:34.850Z,61.98
2016-07-25T01:17:34.830Z,62.27
2016-07-25T01:18:34.814Z,62.18
2016-07-25T01:19:34.797Z,62.27
2016-07-25T01:20:34.785Z,62.56
2016-07-25T01:21:34.771Z,62.95
2016-07-25T01:22:34.755Z,62.76
2016-07-25T01:23:34.740Z,63.05
2016-07-25T01:24:34.726Z,62.85
2016-07-25T01:25:34.711Z,63.05
2016-07-25T01:26:34.694Z,63.14
2016-07-25T01:27:34.677Z,62.95
2016-07-25T01:28:34.664Z,62.95
2016-07-25T01:29:34.648Z,62.95
2016-07-25T01:30:34.637Z,63.31
2016-07-25T01:31:34.623Z,63.89
2016-07-25T01:32:34.612Z,63.92
2016-07-25T01:33:34.591Z,63.43
2016-07-25T01:34:34.585Z,63.73
2016-07-25T01:35:34.562Z,64.08
2016-07-25T01:36:34.547Z,64.08
2016-07-25T01:37:34.530Z,63.89
2016-07-25T01:38:34.516Z,63.98
2016-07-25T01:39:34.503Z,64.27
2016-07-25T01:40:34.487Z,64.27
2016-07-25T01:41:34.471Z,64.18
2016-07-25T01:42:34.461Z,64.37
2016-07-25T01:43:34.449Z,64.18
2016-07-25T01:44:34.426Z,64.76
2016-07-25T01:45:34.412Z,64.18
2016-07-25T01:46:34.395Z,64.08
2016-07-25T01:47:34.383Z,64.76
2016-07-25T01:48:34.366Z,64.85
2016-07-25T01:49:34.351Z,64.66
2016-07-25T01:50:34.341Z,65.05
2016-07-25T01:51:34.320Z,64.85
2016-07-25T01:52:34.306Z,64.56
2016-07-25T01:53:34.292Z,65.14
2016-07-25T01:54:34.276Z,65.05
2016-07-25T01:55:34.263Z,65.43
2016-07-25T01:56:34.249Z,65.43
2016-07-25T01:57:34.231Z,65.24
2016-07-25T01:58:34.215Z,65.34
2016-07-25T01:59:34.198Z,65.34
2016-07-25T02:00:34.187Z,65.14
2016-07-25T02:01:34.871Z,65.14
2016-07-25T02:02:34.213Z,65.63
2016-07-25T02:03:34.137Z,65.43
2016-07-25T02:04:34.130Z,65.63
2016-07-25T02:05:34.123Z,65.82
2016-07-25T02:06:34.114Z,65.88
2016-07-25T02:07:34.079Z,66.08
2016-07-25T02:08:34.755Z,65.53
2016-07-25T02:09:34.048Z,65.53
2016-07-25T02:10:34.034Z,65.63
2016-07-25T02:11:34.016Z,65.72
2016-07-25T02:12:34.008Z,65.88
2016-07-25T02:13:33.995Z,65.72
2016-07-25T02:14:33.990Z,65.69
2016-07-25T02:15:34.010Z,65.92
2016-07-25T02:16:33.953Z,65.72
2016-07-25T02:17:34.745Z,65.72
2016-07-25T02:18:33.937Z,65.63
2016-07-25T02:19:33.955Z,65.63
2016-07-25T02:20:33.883Z,65.69
2016-07-25T02:21:33.875Z,66.11
2016-07-25T02:22:33.908Z,65.92
2016-07-25T02:23:34.592Z,66.01
2016-07-25T02:24:33.829Z,65.92
2016-07-25T02:25:33.886Z,66.3
2016-07-25T02:26:34.573Z,66.2
2016-07-25T02:27:34.524Z,66.2
2016-07-25T02:28:33.802Z,65.88
2016-07-25T02:29:34.580Z,66.36
2016-07-25T02:30:34.530Z,66.59
2016-07-25T02:31:33.726Z,66.36
2016-07-25T02:32:33.746Z,66.4
2016-07-25T02:33:34.481Z,66.59
2016-07-25T02:34:34.509Z,66.78
2016-07-25T02:35:33.666Z,66.5
2016-07-25T02:36:34.385Z,66.36
2016-07-25T02:37:33.689Z,66.59
2016-07-25T02:38:33.607Z,66.59
2016-07-25T02:39:33.640Z,66.59
2016-07-25T02:40:33.581Z,66.4
2016-07-25T02:41:33.579Z,66.27
2016-07-25T02:42:33.545Z,66.27
2016-07-25T02:43:33.553Z,66.27
2016-07-25T02:44:33.519Z,66.36
2016-07-25T02:45:33.530Z,66.27
2016-07-25T02:46:33.498Z,66.36
2016-07-25T02:47:33.529Z,66.66
2016-07-25T02:48:34.207Z,66.56
2016-07-25T02:49:33.454Z,66.56
2016-07-25T02:50:33.444Z,66.46
2016-07-25T02:51:33.427Z,66.66
2016-07-25T02:52:33.402Z,66.94
2016-07-25T02:53:34.107Z,66.75
2016-07-25T02:54:34.195Z,67.24
2016-07-25T02:55:34.221Z,67.04
2016-07-25T02:56:33.332Z,67.24
2016-07-25T02:57:33.316Z,66.94
2016-07-25T02:58:34.176Z,67.04
2016-07-25T02:59:34.124Z,67.14
2016-07-25T03:00:33.273Z,67.14
2016-07-25T03:01:33.335Z,67.43
2016-07-25T03:02:33.354Z,67.33
2016-07-25T03:03:33.270Z,67.04
2016-07-25T03:04:34.004Z,67.14
2016-07-25T03:05:34.045Z,67.72
2016-07-25T03:06:33.208Z,67.82
2016-07-25T03:07:33.265Z,67.91
2016-07-25T03:08:33.947Z,67.62
2016-07-25T03:09:33.943Z,67.43
2016-07-25T03:10:33.229Z,67.43
2016-07-25T03:11:33.278Z,67.72
2016-07-25T03:12:33.199Z,67.82
2016-07-25T03:13:33.836Z,67.43
2016-07-25T03:14:33.120Z,67.72
2016-07-25T03:15:34.014Z,67.33
2016-07-25T03:16:33.056Z,67.82
2016-07-25T03:17:33.103Z,67.82
2016-07-25T03:18:33.813Z,67.52
2016-07-25T03:19:33.080Z,67.82
2016-07-25T03:20:33.022Z,67.91
2016-07-25T03:21:33.028Z,67.72
2016-07-25T03:22:32.929Z,67.91
2016-07-25T03:23:32.996Z,68.01
2016-07-25T03:24:32.987Z,68.1
2016-07-25T03:25:32.962Z,68.3
2016-07-25T03:26:32.910Z,68.01
2016-07-25T03:27:33.675Z,68.01
2016-07-25T03:28:32.975Z,68.2
2016-07-25T03:29:33.735Z,68.68
2016-07-25T03:30:33.607Z,68.68
2016-07-25T03:31:32.892Z,68.78
2016-07-25T03:32:33.564Z,68.78
2016-07-25T03:33:33.531Z,69.26
2016-07-25T03:34:32.842Z,68.98
2016-07-25T03:35:32.875Z,68.78
2016-07-25T03:36:33.625Z,68.88
2016-07-25T03:37:33.540Z,69.52
2016-07-25T03:38:32.745Z,69.42
2016-07-25T03:39:32.687Z,69.13
2016-07-25T03:40:33.450Z,69.23
2016-07-25T03:41:32.704Z,69.62
2016-07-25T03:42:32.771Z,69.71
2016-07-25T03:43:33.548Z,69.62
2016-07-25T03:44:32.590Z,69.81
2016-07-25T03:45:32.606Z,70.2
2016-07-25T03:46:32.731Z,70.29
2016-07-25T03:47:32.625Z,70
2016-07-25T03:48:32.640Z,70.68
2016-07-25T03:49:33.307Z,70.48
2016-07-25T03:50:33.344Z,70.78
2016-07-25T03:51:32.487Z,71.26
2016-07-25T03:52:32.464Z,70.74
2016-07-25T03:53:32.491Z,71.45
2016-07-25T03:54:32.495Z,71.45
2016-07-25T03:55:32.471Z,71.26
2016-07-25T03:56:32.445Z,71.64
2016-07-25T03:57:32.444Z,71.64
2016-07-25T03:58:32.470Z,71.42
2016-07-25T03:59:32.355Z,71.8
2016-07-25T04:00:32.402Z,71.7
2016-07-25T04:01:32.323Z,71.7
2016-07-25T04:02:32.396Z,71.7
2016-07-25T04:03:32.365Z,71.61
2016-07-25T04:04:32.299Z,71.61
2016-07-25T04:05:32.330Z,71.74
2016-07-25T04:06:32.286Z,71.51
2016-07-25T04:07:32.286Z,71.32
2016-07-25T04:08:32.221Z,71.8
2016-07-25T04:09:32.221Z,71.7
2016-07-25T04:10:32.234Z,71.61
2016-07-25T04:11:32.202Z,71.64
2016-07-25T04:12:32.225Z,71.7
2016-07-25T04:13:32.183Z,71.74
2016-07-25T04:14:32.180Z,71.74
2016-07-25T04:15:32.160Z,71.26
2016-07-25T04:16:32.176Z,71.45
2016-07-25T04:17:32.075Z,71.7
2016-07-25T04:18:32.128Z,71.7
2016-07-25T04:19:32.048Z,71.7
2016-07-25T04:20:32.075Z,71.9
2016-07-25T04:21:32.121Z,71.9
2016-07-25T04:22:32.032Z,71.7
2016-07-25T04:23:32.041Z,72
2016-07-25T04:24:32.050Z,72
2016-07-25T04:25:31.985Z,72
2016-07-25T04:26:31.933Z,71.9
2016-07-25T04:27:31.974Z,72
2016-07-25T04:28:31.998Z,71.7
2016-07-25T04:29:31.901Z,71.9
2016-07-25T04:30:31.918Z,71.7
2016-07-25T04:31:31.934Z,71.9
2016-07-25T04:32:31.839Z,71.8
2016-07-25T04:33:31.866Z,72.38
2016-07-25T04:34:31.825Z,72.09
2016-07-25T04:35:31.831Z,72.19
2016-07-25T04:36:31.848Z,72.38
2016-07-25T04:37:31.853Z,72.28
2016-07-25T04:38:31.750Z,72.28
2016-07-25T04:39:31.737Z,72.09
2016-07-25T04:40:31.719Z,72.19
2016-07-25T04:41:31.702Z,72.19
2016-07-25T04:42:31.703Z,72.28
2016-07-25T04:43:31.671Z,72.19
2016-07-25T04:44:31.658Z,72
2016-07-25T04:45:31.640Z,71.7
2016-07-25T04:46:31.629Z,71.74
2016-07-25T04:47:31.609Z,71.7
2016-07-25T04:48:31.595Z,71.94
2016-07-25T04:49:31.581Z,71.64
2016-07-25T04:50:31.566Z,71.74
2016-07-25T04:51:31.546Z,71.74
2016-07-25T04:52:31.540Z,71.64
2016-07-25T04:53:31.517Z,71.94
2016-07-25T04:54:31.502Z,71.64
2016-07-25T04:55:31.488Z,71.74
2016-07-25T04:56:31.473Z,72.03
2016-07-25T04:57:31.460Z,71.74
2016-07-25T04:58:31.440Z,71.74
2016-07-25T04:59:31.428Z,71.51
2016-07-25T05:00:31.412Z,71.51
2016-07-25T05:01:31.403Z,71.42
2016-07-25T05:02:31.381Z,71.9
2016-07-25T05:03:31.368Z,71.7
2016-07-25T05:04:31.420Z,71.9
2016-07-25T05:05:31.337Z,71.7
2016-07-25T05:06:31.319Z,72
2016-07-25T05:07:31.309Z,72
2016-07-25T05:08:31.290Z,71.42
2016-07-25T05:09:31.276Z,71.61
2016-07-25T05:10:31.259Z,71.8
2016-07-25T05:11:31.247Z,71.61
2016-07-25T05:12:31.230Z,71.8
2016-07-25T05:13:31.356Z,71.51
2016-07-25T05:14:31.200Z,71.7
2016-07-25T05:15:31.189Z,71.61
2016-07-25T05:16:31.172Z,71.45
2016-07-25T05:17:31.157Z,71.64
2016-07-25T05:18:31.141Z,71.36
2016-07-25T05:19:31.129Z,71.45
2016-07-25T05:20:31.114Z,71.36
2016-07-25T05:21:31.096Z,71.45
2016-07-25T05:22:31.080Z,71.26
2016-07-25T05:23:31.064Z,70.97
2016-07-25T05:24:31.145Z,71.36
2016-07-25T05:25:31.038Z,70.97
2016-07-25T05:26:31.021Z,70.87
2016-07-25T05:27:31.006Z,71.16
2016-07-25T05:28:30.991Z,70.87
2016-07-25T05:29:30.978Z,70.39
2016-07-25T05:30:30.963Z,70.39
2016-07-25T05:31:30.947Z,70.58
2016-07-25T05:32:30.931Z,70.29
2016-07-25T05:33:30.916Z,70.68
2016-07-25T05:34:30.899Z,70.48
2016-07-25T05:35:30.938Z,70.58
2016-07-25T05:36:31.032Z,70.78
2016-07-25T05:37:31.274Z,70.87
2016-07-25T05:38:30.999Z,70.2
2016-07-25T05:39:30.826Z,70.2
2016-07-25T05:40:31.023Z,70.39
2016-07-25T05:41:30.795Z,69.9
2016-07-25T05:42:30.780Z,70.2
2016-07-25T05:43:31.020Z,69.9
2016-07-25T05:44:30.749Z,69.81
2016-07-25T05:45:30.736Z,70
2016-07-25T05:46:30.720Z,70
2016-07-25T05:47:30.705Z,69.71
2016-07-25T05:48:30.689Z,69.62
2016-07-25T05:49:30.831Z,69.52
2016-07-25T05:50:30.659Z,68.94
2016-07-25T05:51:30.644Z,69.26
2016-07-25T05:52:30.631Z,68.78
2016-07-25T05:53:30.614Z,68.88
2016-07-25T05:54:30.769Z,68.88
2016-07-25T05:55:30.708Z,67.91
2016-07-25T05:56:30.820Z,68.01
2016-07-25T05:57:30.727Z,68.01
2016-07-25T05:58:30.703Z,67.43
2016-07-25T05:59:31.020Z,67.82
2016-07-25T06:00:30.775Z,67.33
2016-07-25T06:01:30.917Z,67.43
2016-07-25T06:02:30.760Z,67.82
2016-07-25T06:03:30.796Z,67.24
2016-07-25T06:04:30.928Z,67.46
2016-07-25T06:05:30.926Z,67.24
2016-07-25T06:06:30.615Z,66.4
2016-07-25T06:07:30.618Z,66.5
2016-07-25T06:08:30.449Z,66.11
2016-07-25T06:09:30.547Z,65.63
2016-07-25T06:10:30.529Z,65.53
2016-07-25T06:11:30.582Z,65.75
2016-07-25T06:12:30.344Z,64.56
2016-07-25T06:13:30.394Z,64.76
2016-07-25T06:14:30.324Z,64.11
2016-07-25T06:15:30.304Z,64.5
2016-07-25T06:16:30.500Z,64.21
2016-07-25T06:17:30.440Z,63.82
2016-07-25T06:18:30.421Z,63.95
2016-07-25T06:19:30.443Z,62.98
2016-07-25T06:20:30.530Z,62.88
2016-07-25T06:21:30.388Z,63.18
2016-07-25T06:22:30.590Z,62.88
2016-07-25T06:23:30.544Z,62.5
2016-07-25T06:24:30.469Z,62.5
2016-07-25T06:25:30.374Z,62.4
2016-07-25T06:26:30.212Z,61.92
2016-07-25T06:27:30.245Z,61.63
2016-07-25T06:28:30.651Z,61.63
2016-07-25T06:29:30.432Z,61.43
2016-07-25T06:30:30.214Z,60.75
2016-07-25T06:31:30.177Z,60.63
2016-07-25T06:32:30.170Z,60.63
2016-07-25T06:33:30.296Z,60.72
2016-07-25T06:34:30.242Z,60.66
2016-07-25T06:35:30.369Z,60.92
2016-07-25T06:36:30.550Z,60.17
2016-07-25T06:37:30.646Z,59.89
2016-07-25T06:38:30.366Z,59.98
2016-07-25T06:39:30.342Z,59.69
2016-07-25T06:40:30.437Z,60.14
2016-07-25T06:41:30.501Z,60.14
2016-07-25T06:42:30.251Z,59.76
2016-07-25T06:43:30.663Z,59.56
2016-07-25T06:44:30.100Z,59.4
2016-07-25T06:45:30.995Z,59.4
2016-07-25T06:46:30.922Z,59.31
2016-07-25T06:47:30.824Z,59.11
2016-07-25T06:48:31.685Z,58.72
2016-07-25T06:49:30.509Z,58.82
2016-07-25T06:50:30.495Z,58.44
2016-07-25T06:51:29.826Z,58.34
2016-07-25T06:52:29.981Z,57.79
2016-07-25T06:53:31.199Z,58.07
2016-07-25T06:54:30.497Z,57.11
2016-07-25T06:55:30.468Z,56.75
2016-07-25T06:56:30.433Z,57.2
2016-07-25T06:57:30.540Z,56.56
2016-07-25T06:58:30.593Z,56.75
2016-07-25T06:59:30.273Z,56.75
2016-07-25T07:00:30.526Z,56.26
2016-07-25T07:01:30.968Z,56.26
2016-07-25T07:02:30.188Z,55.88
2016-07-25T07:03:30.403Z,56.07
2016-07-25T07:04:30.504Z,55.81
2016-07-25T07:05:30.188Z,55.42
2016-07-25T07:06:30.814Z,55.54
2016-07-25T07:07:30.198Z,55.06
2016-07-25T07:08:30.349Z,54.77
2016-07-25T07:09:30.257Z,54.6
2016-07-25T07:10:30.398Z,53.53
2016-07-25T07:11:30.728Z,54.02
2016-07-25T07:12:30.756Z,53.15
2016-07-25T07:13:30.615Z,52.95
2016-07-25T07:14:30.676Z,52.78
2016-07-25T07:15:30.680Z,52.11
2016-07-25T07:16:30.697Z,52.4
2016-07-25T07:17:31.597Z,51.16
2016-07-25T07:18:30.330Z,51.16
2016-07-25T07:19:31.157Z,50.87
2016-07-25T07:20:30.175Z,50.58
2016-07-25T07:21:30.190Z,50.87
2016-07-25T07:22:29.945Z,50.68
2016-07-25T07:23:30.165Z,49.63
2016-07-25T07:24:30.129Z,49.63
2016-07-25T07:25:30.301Z,49.34
2016-07-25T07:26:30.107Z,48.95
2016-07-25T07:27:30.434Z,49.15
2016-07-25T07:28:30.242Z,48.66
2016-07-25T07:29:30.887Z,48.47
2016-07-25T07:30:30.095Z,48.44
2016-07-25T07:31:30.179Z,48.15
2016-07-25T07:32:30.492Z,48.15
2016-07-25T07:33:30.325Z,47.86
2016-07-25T07:34:30.248Z,47.76
2016-07-25T07:35:30.341Z,47.66
2016-07-25T07:36:30.123Z,47.76
2016-07-25T07:37:30.379Z,46.6
2016-07-25T07:38:30.108Z,46.72
2016-07-25T07:39:30.184Z,46.33
2016-07-25T07:40:30.631Z,46.06
2016-07-25T07:41:30.841Z,46.06
2016-07-25T07:42:31.033Z,45.18
2016-07-25T07:43:31.239Z,45.18
2016-07-25T07:44:30.070Z,45.18
2016-07-25T07:45:30.063Z,45.18
2016-07-25T07:46:30.233Z,45.17
2016-07-25T07:47:30.029Z,44.68
2016-07-25T07:48:30.162Z,44.78
2016-07-25T07:49:30.371Z,44.41
2016-07-25T07:50:30.100Z,44.02
2016-07-25T07:51:30.106Z,44.31
2016-07-25T07:52:29.907Z,44.12
2016-07-25T07:53:29.878Z,44.02
2016-07-25T07:54:29.986Z,44.02
2016-07-25T07:55:30.052Z,43.34
2016-07-25T07:56:30.269Z,43.05
2016-07-25T07:57:29.769Z,42.95
2016-07-25T07:58:30.082Z,42.95
2016-07-25T07:59:31.565Z,42.95
2016-07-25T08:00:30.523Z,43.02
2016-07-25T08:01:31.546Z,43.12
2016-07-25T08:02:30.323Z,42.93
2016-07-25T08:03:30.405Z,42.83
2016-07-25T08:04:29.815Z,42.74
2016-07-25T08:05:31.057Z,42.76
2016-07-25T08:06:30.014Z,42.56
2016-07-25T08:07:30.919Z,42.56
2016-07-25T08:08:30.856Z,42.66
2016-07-25T08:09:30.138Z,42.56
2016-07-25T08:10:30.117Z,42.64
2016-07-25T08:11:31.034Z,42.56
2016-07-25T08:12:30.005Z,42.56
2016-07-25T08:13:29.923Z,42.18
2016-07-25T08:14:29.966Z,42.54
2016-07-25T08:15:29.832Z,42.15
2016-07-25T08:16:29.876Z,42.18
2016-07-25T08:17:29.983Z,42.27
2016-07-25T08:18:30.290Z,42.08
2016-07-25T08:19:29.715Z,41.69
2016-07-25T08:20:30.765Z,42.18
2016-07-25T08:21:30.027Z,42.64
2016-07-25T08:22:29.823Z,42.44
2016-07-25T08:23:30.884Z,42.64
2016-07-25T08:24:30.983Z,43.22
2016-07-25T08:25:30.047Z,43.32
2016-07-25T08:26:30.763Z,43.8
2016-07-25T08:27:31.092Z,43.9
2016-07-25T08:28:29.742Z,44.68
2016-07-25T08:29:30.698Z,44.56
2016-07-25T08:30:29.813Z,45.43
2016-07-25T08:31:29.821Z,45.34
2016-07-25T08:32:30.066Z,45.62
2016-07-25T08:33:29.854Z,45.53
2016-07-25T08:34:29.671Z,45.92
2016-07-25T08:35:29.709Z,45.53
2016-07-25T08:36:29.654Z,45.7
2016-07-25T08:37:29.732Z,45.72
2016-07-25T08:38:29.794Z,45.82
2016-07-25T08:39:29.690Z,45.82
2016-07-25T08:40:29.761Z,45.82
2016-07-25T08:41:29.628Z,45.34
2016-07-25T08:42:29.596Z,45.43
2016-07-25T08:43:29.726Z,45.34
2016-07-25T08:44:29.676Z,45.34
2016-07-25T08:45:29.940Z,45.53
2016-07-25T08:46:29.611Z,45.24
2016-07-25T08:47:29.816Z,44.65
2016-07-25T08:48:29.662Z,44.56
2016-07-25T08:49:29.729Z,44.46
2016-07-25T08:50:30.427Z,44.46
2016-07-25T08:51:29.713Z,44.27
2016-07-25T08:52:29.548Z,43.88
2016-07-25T08:53:29.758Z,43.98
2016-07-25T08:54:29.575Z,43.98
2016-07-25T08:55:29.465Z,43.71
2016-07-25T08:56:29.499Z,43.41
2016-07-25T08:57:30.448Z,43.22
2016-07-25T08:58:30.417Z,43.15
2016-07-25T08:59:29.512Z,43.24
2016-07-25T09:00:29.485Z,43.15
2016-07-25T09:01:29.510Z,42.95
2016-07-25T09:02:29.828Z,42.76
2016-07-25T09:03:29.409Z,42.76
2016-07-25T09:04:30.379Z,42.27
2016-07-25T09:05:30.295Z,42.18
2016-07-25T09:06:29.238Z,42.49
2016-07-25T09:07:29.295Z,42.29
2016-07-25T09:08:30.405Z,42.49
2016-07-25T09:09:30.406Z,42.39
2016-07-25T09:10:29.171Z,41.9
2016-07-25T09:11:29.351Z,41.34
2016-07-25T09:12:29.590Z,41.63
2016-07-25T09:13:30.295Z,41.44
2016-07-25T09:14:30.011Z,41.34
2016-07-25T09:15:29.402Z,40.85
2016-07-25T09:16:29.112Z,41.14
2016-07-25T09:17:29.158Z,41.26
2016-07-25T09:18:29.042Z,41.06
2016-07-25T09:19:29.606Z,40.48
2016-07-25T09:20:29.195Z,40.29
2016-07-25T09:21:28.586Z,40.09
2016-07-25T09:22:29.549Z,40.01
2016-07-25T09:23:29.148Z,39.72
2016-07-25T09:24:28.863Z,39.72
2016-07-25T09:25:29.035Z,40.01
2016-07-25T09:26:29.246Z,40.01
2016-07-25T09:27:29.671Z,39.24
2016-07-25T09:28:28.867Z,39.26
2016-07-25T09:29:29.649Z,38.87
2016-07-25T09:30:28.967Z,38.98
2016-07-25T09:31:29.338Z,38.79
2016-07-25T09:32:30.658Z,38.79
2016-07-25T09:33:29.447Z,38.96
2016-07-25T09:34:30.144Z,38.87
2016-07-25T09:35:28.912Z,38.69
2016-07-25T09:36:30.085Z,38.4
2016-07-25T09:37:28.838Z,38.01
2016-07-25T09:38:28.890Z,37.93
2016-07-25T09:39:29.009Z,37.73
2016-07-25T09:40:28.668Z,37.35
2016-07-25T09:41:28.785Z,37.25
2016-07-25T09:42:29.057Z,37.45
2016-07-25T09:43:29.793Z,36.98
2016-07-25T09:44:28.780Z,36.98
2016-07-25T09:45:28.979Z,37.07
2016-07-25T09:46:28.762Z,37.15
2016-07-25T09:47:28.627Z,36.78
2016-07-25T09:48:28.582Z,36.68
2016-07-25T09:49:28.476Z,36.49
2016-07-25T09:50:29.285Z,36.68
2016-07-25T09:51:28.308Z,36.29
2016-07-25T09:52:28.920Z,36.11
2016-07-25T09:53:28.725Z,36.29
2016-07-25T09:54:28.914Z,36.58
2016-07-25T09:55:29.756Z,37.17
2016-07-25T09:56:29.179Z,36.76
2016-07-25T09:57:28.922Z,36.66
2016-07-25T09:58:29.010Z,37.05
2016-07-25T09:59:28.973Z,37.05
2016-07-25T10:00:28.634Z,36.86
2016-07-25T10:01:29.702Z,36.76
2016-07-25T10:02:28.930Z,36.76
2016-07-25T10:03:28.925Z,36.49
2016-07-25T10:04:29.128Z,36.58
2016-07-25T10:05:28.652Z,36.68
2016-07-25T10:06:28.831Z,36
2016-07-25T10:07:28.839Z,35.72
2016-07-25T10:08:29.869Z,35.82
2016-07-25T10:09:28.895Z,35.43
2016-07-25T10:10:29.542Z,35.24
2016-07-25T10:11:28.611Z,35.53
2016-07-25T10:12:28.820Z,35.16
2016-07-25T10:13:28.685Z,34.96
2016-07-25T10:14:29.554Z,34.86
2016-07-25T10:15:28.958Z,34.47
2016-07-25T10:16:28.802Z,34.77
2016-07-25T10:17:28.817Z,34.28
2016-07-25T10:18:28.959Z,34.39
2016-07-25T10:19:28.884Z,34.29
2016-07-25T10:20:28.802Z,34.57
2016-07-25T10:21:28.814Z,35.25
2016-07-25T10:22:28.999Z,34.94
2016-07-25T10:23:28.473Z,35.16
2016-07-25T10:24:28.764Z,34.86
2016-07-25T10:25:28.930Z,34.47
2016-07-25T10:26:28.193Z,34.48
2016-07-25T10:27:28.188Z,34
2016-07-25T10:28:28.185Z,34.39
2016-07-25T10:29:28.185Z,33.9
2016-07-25T10:30:28.180Z,34.01
2016-07-25T10:31:28.265Z,33.72
2016-07-25T10:32:28.171Z,33.8
2016-07-25T10:33:28.424Z,33.7
2016-07-25T10:34:28.169Z,33.72
2016-07-25T10:35:28.166Z,33.72
2016-07-25T10:36:28.218Z,33.72
2016-07-25T10:37:28.158Z,33.7
2016-07-25T10:38:28.156Z,33.62
2016-07-25T10:39:28.155Z,33.33
2016-07-25T10:40:28.151Z,33.33
2016-07-25T10:41:28.150Z,33.43
2016-07-25T10:42:28.143Z,32.94
2016-07-25T10:43:28.144Z,32.65
2016-07-25T10:44:28.139Z,32.27
2016-07-25T10:45:28.140Z,31.9
2016-07-25T10:46:28.134Z,31.81
2016-07-25T10:47:28.130Z,31.99
2016-07-25T10:48:28.134Z,32.09
2016-07-25T10:49:29.328Z,32.29
2016-07-25T10:50:28.626Z,32.46
2016-07-25T10:51:28.441Z,32.46
2016-07-25T10:52:28.513Z,32.27
2016-07-25T10:53:28.536Z,31.9
2016-07-25T10:54:28.369Z,31.41
2016-07-25T10:55:28.551Z,31.03
2016-07-25T10:56:28.611Z,30.93
2016-07-25T10:57:28.467Z,30.36
2016-07-25T10:58:28.262Z,29.97
2016-07-25T10:59:28.371Z,30.16
2016-07-25T11:00:28.618Z,29.98
2016-07-25T11:01:28.349Z,29.88
2016-07-25T11:02:28.481Z,29.88
2016-07-25T11:03:28.449Z,29.69
2016-07-25T11:04:28.529Z,29.49
2016-07-25T11:05:29.192Z,29.49
2016-07-25T11:06:28.395Z,29.79
2016-07-25T11:07:28.085Z,29.88
2016-07-25T11:08:28.321Z,29.59
2016-07-25T11:09:28.215Z,29.49
2016-07-25T11:10:28.245Z,29.2
2016-07-25T11:11:28.408Z,29
2016-07-25T11:12:28.371Z,28.91
2016-07-25T11:13:28.311Z,28.72
2016-07-25T11:14:28.308Z,28.15
2016-07-25T11:15:28.309Z,28.05
2016-07-25T11:16:28.443Z,27.97
2016-07-25T11:17:28.106Z,28.34
2016-07-25T11:18:28.270Z,28.82
2016-07-25T11:19:28.169Z,29
2016-07-25T11:20:28.257Z,28.81
2016-07-25T11:21:28.809Z,28.22
2016-07-25T11:22:28.891Z,27.94
2016-07-25T11:23:28.793Z,28.15
2016-07-25T11:24:28.276Z,27.95
2016-07-25T11:25:28.068Z,28.05
2016-07-25T11:26:28.542Z,27.95
2016-07-25T11:27:28.074Z,27.66
2016-07-25T11:28:29.113Z,27.95
2016-07-25T11:29:28.073Z,27.94
2016-07-25T11:30:28.073Z,28.03
2016-07-25T11:31:28.065Z,28.13
2016-07-25T11:32:28.114Z,28.13
2016-07-25T11:33:28.063Z,27.94
2016-07-25T11:34:28.071Z,28.03
2016-07-25T11:35:28.593Z,28.33
2016-07-25T11:36:28.149Z,28.22
2016-07-25T11:37:28.770Z,28.31
2016-07-25T11:38:28.055Z,28.13
2016-07-25T11:39:28.130Z,27.64
2016-07-25T11:40:28.053Z,27.64
2016-07-25T11:41:28.048Z,27.07
2016-07-25T11:42:28.123Z,27.07
2016-07-25T11:43:28.048Z,26.59
2016-07-25T11:44:28.055Z,26.31
2016-07-25T11:45:28.051Z,26.31
2016-07-25T11:46:28.045Z,26.7
2016-07-25T11:47:28.052Z,26.89
2016-07-25T11:48:28.046Z,27.18
2016-07-25T11:49:28.315Z,27.17
2016-07-25T11:50:28.219Z,27.74
2016-07-25T11:51:28.106Z,28.02
2016-07-25T11:52:28.389Z,28.12
2016-07-25T11:53:29.689Z,28.12
2016-07-25T11:54:28.079Z,28.4
2016-07-25T11:55:28.093Z,28.4
2016-07-25T11:56:28.219Z,28.69
2016-07-25T11:57:28.079Z,28.99
2016-07-25T11:58:28.910Z,29.07
2016-07-25T11:59:28.059Z,29.08
2016-07-25T12:00:28.411Z,28.88
2016-07-25T12:01:28.007Z,28.99
2016-07-25T12:02:28.005Z,29.38
2016-07-25T12:03:27.999Z,29.48
2016-07-25T12:04:28.039Z,29.75
2016-07-25T12:05:28.057Z,29.85
2016-07-25T12:06:27.993Z,29.85
2016-07-25T12:07:27.992Z,29.75
2016-07-25T12:08:27.982Z,29.56
2016-07-25T12:09:28.065Z,29.75
2016-07-25T12:10:27.999Z,28.79
2016-07-25T12:11:27.992Z,29.58
2016-07-25T12:12:28.147Z,29.18
2016-07-25T12:13:28.108Z,29.46
2016-07-25T12:14:28.174Z,29.27
2016-07-25T12:15:28.299Z,28.79
2016-07-25T12:16:29.360Z,29.18
2016-07-25T12:17:28.287Z,29.58
2016-07-25T12:18:28.434Z,29.95
2016-07-25T12:19:29.540Z,29.85
2016-07-25T12:20:28.595Z,29.75
2016-07-25T12:21:28.558Z,29.95
2016-07-25T12:22:28.601Z,29.56
2016-07-25T12:23:28.586Z,28.99
2016-07-25T12:24:28.633Z,28.97
2016-07-25T12:25:28.626Z,28.79
2016-07-25T12:26:29.580Z,27.91
2016-07-25T12:27:28.704Z,27.63
2016-07-25T12:28:28.321Z,27.24
2016-07-25T12:29:28.441Z,27.15
2016-07-25T12:30:29.548Z,27.07
2016-07-25T12:31:28.836Z,27.25
2016-07-25T12:32:28.470Z,27.45
2016-07-25T12:33:29.032Z,27.63
2016-07-25T12:34:28.539Z,27.83
2016-07-25T12:35:28.463Z,27.35
2016-07-25T12:36:28.886Z,26.78
2016-07-25T12:37:28.394Z,26.58
2016-07-25T12:38:28.618Z,26.5
2016-07-25T12:39:28.390Z,26.29
2016-07-25T12:40:29.268Z,26.29
2016-07-25T12:41:29.420Z,26.28
2016-07-25T12:42:28.536Z,25.99
2016-07-25T12:43:29.419Z,25.79
2016-07-25T12:44:28.250Z,25.51
2016-07-25T12:45:28.375Z,25.02
2016-07-25T12:46:28.656Z,25.02
2016-07-25T12:47:28.346Z,24.73
2016-07-25T12:48:28.315Z,24.73
2016-07-25T12:49:28.237Z,24.82
2016-07-25T12:50:28.611Z,24.92
2016-07-25T12:51:28.782Z,25.42
2016-07-25T12:52:29.127Z,25.71
2016-07-25T12:53:28.066Z,25.71
2016-07-25T12:54:29.320Z,26.2
2016-07-25T12:55:28.984Z,26.38
2016-07-25T12:56:28.949Z,26.58